Time;durP1;ratioP1;P1;durP2;ratioP2;P2;SDS_P1;SDS_P2;PMS_P1;PMS_P2;Temp;Humidity;BMP_temperature;BMP_pressure;BME280_temperature;BME280_humidity;BME280_pressure;Samples;Min_cycle;Max_cycle;Signal;HPM_P1;HPM_P2
2023/06/12 04:01:58;;;;;;;0.70;0.10;;;21.40;1.00;;;;;;5391368;23;20911;-75
2023/06/12 04:04:26;;;;;;;0.60;0.20;;;21.40;1.00;;;;;;5007411;28;20440;-77
2023/06/12 04:06:54;;;;;;;0.60;0.10;;;21.30;1.00;;;;;;5014586;28;20448;-76
2023/06/12 04:09:22;;;;;;;0.60;0.10;;;21.40;1.00;;;;;;5014508;28;20446;-77
2023/06/12 04:11:50;;;;;;;0.70;0.20;;;21.40;1.00;;;;;;4986956;28;20470;-77
2023/06/12 04:14:22;;;;;;;0.60;0.17;;;;;;;;;;4974672;28;20446;-76
2023/06/12 04:16:51;;;;;;;0.60;0.20;;;21.40;1.00;;;;;;4972325;23;20857;-73
2023/06/12 04:19:21;;;;;;;0.70;0.10;;;20.90;1.00;;;;;;4956801;28;20448;-74
2023/06/12 04:21:49;;;;;;;0.60;0.10;;;21.40;1.00;;;;;;4952458;29;20578;-73
2023/06/12 04:24:17;;;;;;;0.60;0.20;;;21.40;1.00;;;;;;4955589;28;20832;-74
2023/06/12 04:26:46;;;;;;;0.60;0.10;;;21.50;1.00;;;;;;4967333;28;20887;-73
2023/06/12 04:29:14;;;;;;;0.60;0.13;;;21.50;1.00;;;;;;4972733;28;20454;-74
2023/06/12 04:31:42;;;;;;;0.60;0.10;;;21.50;1.00;;;;;;4953584;28;20467;-74
2023/06/12 04:34:15;;;;;;;0.70;0.40;;;21.60;1.00;;;;;;4953029;29;20538;-73
2023/06/12 04:36:46;;;;;;;0.80;0.30;;;21.60;1.00;;;;;;4956847;28;20474;-73
2023/06/12 04:39:14;;;;;;;0.60;0.20;;;21.60;1.00;;;;;;4972880;28;20489;-74
2023/06/12 04:41:42;;;;;;;0.70;0.10;;;21.70;1.00;;;;;;4968836;28;20951;-73
2023/06/12 04:44:10;;;;;;;0.60;0.10;;;21.70;1.00;;;;;;4962353;28;20447;-74
2023/06/12 04:46:38;;;;;;;0.60;0.10;;;21.70;1.00;;;;;;4967436;28;20489;-74
2023/06/12 04:49:06;;;;;;;0.60;0.20;;;21.70;1.00;;;;;;4953099;28;20941;-74
2023/06/12 04:51:35;;;;;;;0.90;0.63;;;21.70;1.00;;;;;;4957607;29;20452;-73
2023/06/12 04:54:05;;;;;;;0.77;0.47;;;21.70;1.00;;;;;;4957908;29;20448;-75
2023/06/12 04:56:33;;;;;;;0.80;0.30;;;21.70;1.00;;;;;;4964465;28;21000;-77
2023/06/12 04:59:01;;;;;;;0.60;0.10;;;21.70;1.00;;;;;;4961531;28;20478;-77
2023/06/12 05:01:30;;;;;;;0.70;0.20;;;21.80;1.00;;;;;;4987566;28;20454;-78
2023/06/12 05:03:58;;;;;;;0.70;0.20;;;21.90;1.00;;;;;;4979048;28;20475;-78
2023/06/12 05:06:28;;;;;;;0.60;0.20;;;22.00;1.00;;;;;;4968386;29;20508;-79
2023/06/12 05:08:56;;;;;;;0.93;0.83;;;22.00;1.00;;;;;;4965254;28;20463;-72
2023/06/12 05:11:26;;;;;;;0.70;0.10;;;21.90;1.00;;;;;;4961845;28;20826;-73
2023/06/12 05:13:53;;;;;;;2.00;0.37;;;21.90;1.00;;;;;;4956091;28;20840;-73
2023/06/12 05:16:22;;;;;;;0.70;0.20;;;21.90;1.00;;;;;;4955993;28;21027;-72
2023/06/12 05:18:51;;;;;;;2.03;0.43;;;21.90;1.00;;;;;;4957927;28;20883;-73
2023/06/12 05:21:19;;;;;;;1.13;0.60;;;21.90;1.00;;;;;;4956663;29;20751;-71
2023/06/12 05:23:48;;;;;;;0.70;0.30;;;21.80;1.00;;;;;;4956126;29;20547;-73
2023/06/12 05:26:16;;;;;;;0.70;0.50;;;21.80;1.00;;;;;;4957369;28;20471;-72
2023/06/12 05:28:45;;;;;;;0.70;0.20;;;21.80;1.00;;;;;;4957403;29;20452;-72
2023/06/12 05:31:13;;;;;;;0.60;0.20;;;21.80;1.00;;;;;;4964160;28;20912;-72
2023/06/12 05:33:41;;;;;;;0.60;0.10;;;21.80;1.00;;;;;;4957043;28;20440;-72
2023/06/12 05:36:10;;;;;;;0.60;0.20;;;21.80;1.00;;;;;;4950064;28;20459;-71
2023/06/12 05:38:38;;;;;;;0.60;0.20;;;21.90;1.00;;;;;;4939444;29;20514;-72
2023/06/12 05:41:06;;;;;;;0.80;0.57;;;21.90;1.00;;;;;;4936616;29;20462;-71
2023/06/12 05:43:34;;;;;;;0.70;0.20;;;22.00;1.00;;;;;;4936357;29;20489;-70
2023/06/12 05:46:04;;;;;;;0.70;0.20;;;22.00;1.00;;;;;;4955202;28;20471;-69
2023/06/12 05:48:32;;;;;;;0.70;0.20;;;22.10;1.00;;;;;;4955995;29;20463;-71
2023/06/12 05:51:00;;;;;;;0.70;0.10;;;22.10;1.00;;;;;;4960547;28;20455;-71
2023/06/12 05:53:27;;;;;;;0.73;0.67;;;22.10;1.00;;;;;;4958778;29;20491;-70
2023/06/12 05:55:55;;;;;;;1.87;1.40;;;22.00;1.00;;;;;;4955727;29;20539;-70
2023/06/12 05:58:23;;;;;;;0.80;0.30;;;22.00;1.00;;;;;;4943101;29;20544;-71
2023/06/12 06:00:52;;;;;;;0.60;0.20;;;22.10;1.00;;;;;;4953772;28;20539;-69
2023/06/12 06:03:24;;;;;;;0.70;0.20;;;22.10;1.00;;;;;;4955349;29;20485;-71
2023/06/12 06:05:53;;;;;;;0.70;0.10;;;22.30;1.00;;;;;;4955350;29;20884;-70
2023/06/12 06:08:21;;;;;;;0.63;0.10;;;22.30;1.00;;;;;;4955489;29;20466;-70
2023/06/12 06:10:49;;;;;;;0.70;0.10;;;22.40;1.00;;;;;;4956079;29;20539;-70
2023/06/12 06:13:18;;;;;;;0.70;0.47;;;;;;;;;;4955225;29;20455;-68
2023/06/12 06:15:48;;;;;;;0.70;0.10;;;22.60;1.00;;;;;;4945513;29;20541;-71
2023/06/12 06:18:16;;;;;;;0.70;0.23;;;22.60;1.00;;;;;;4955749;29;20935;-70
2023/06/12 06:20:45;;;;;;;0.70;0.10;;;22.70;1.00;;;;;;4956618;29;20770;-71
2023/06/12 06:23:13;;;;;;;0.70;0.20;;;22.60;1.00;;;;;;4955279;29;20515;-71
2023/06/12 06:25:41;;;;;;;1.13;0.67;;;22.60;1.00;;;;;;4955147;29;20540;-71
2023/06/12 06:28:12;;;;;;;0.80;0.70;;;22.60;1.00;;;;;;4956770;29;20453;-71
2023/06/12 06:30:39;;;;;;;0.70;0.10;;;22.70;1.00;;;;;;4956632;29;20494;-70
2023/06/12 06:33:07;;;;;;;0.70;0.40;;;22.60;1.00;;;;;;4958144;29;20468;-70
2023/06/12 06:35:35;;;;;;;0.70;0.10;;;22.70;1.00;;;;;;4957575;29;20987;-71
2023/06/12 06:38:05;;;;;;;0.70;0.10;;;22.80;1.00;;;;;;4950624;28;20462;-70
2023/06/12 06:40:32;;;;;;;0.70;0.20;;;22.80;1.00;;;;;;4962842;28;20522;-70
2023/06/12 06:43:01;;;;;;;0.70;0.10;;;22.90;1.00;;;;;;4969558;28;20476;-71
2023/06/12 06:45:28;;;;;;;0.70;0.10;;;23.10;1.00;;;;;;4965263;28;20506;-71
2023/06/12 06:47:57;;;;;;;1.00;0.77;;;23.10;1.00;;;;;;4955408;28;21033;-70
2023/06/12 06:50:25;;;;;;;0.70;0.10;;;23.20;1.00;;;;;;4953366;29;20500;-70
2023/06/12 06:52:53;;;;;;;0.70;0.20;;;23.30;1.00;;;;;;4953474;29;21168;-71
2023/06/12 06:55:23;;;;;;;0.70;0.20;;;23.40;1.00;;;;;;4953427;29;20540;-70
2023/06/12 06:57:54;;;;;;;0.70;0.10;;;23.50;1.00;;;;;;4964104;28;20748;-70
2023/06/12 07:00:23;;;;;;;0.70;0.20;;;23.50;1.00;;;;;;4973681;28;20448;-70
2023/06/12 07:02:51;;;;;;;0.70;0.13;;;23.50;1.00;;;;;;4964841;28;20483;-70
2023/06/12 07:05:20;;;;;;;0.90;0.43;;;23.50;1.00;;;;;;4960915;28;20460;-71
2023/06/12 07:07:49;;;;;;;1.47;1.37;;;23.50;1.00;;;;;;4964171;28;20534;-70
2023/06/12 07:10:29;;;;;;;0.70;0.20;;;23.60;1.00;;;;;;4960533;28;20475;-69
2023/06/12 07:12:57;;;;;;;0.70;0.10;;;23.60;1.00;;;;;;4966228;28;20447;-71
2023/06/12 07:15:25;;;;;;;0.80;0.67;;;23.80;1.00;;;;;;4958716;28;21019;-72
2023/06/12 07:17:53;;;;;;;0.70;0.10;;;23.80;1.00;;;;;;4962720;28;20456;-71
2023/06/12 07:20:21;;;;;;;0.80;0.70;;;23.80;1.00;;;;;;4953227;29;20446;-71
2023/06/12 07:22:50;;;;;;;0.70;0.20;;;23.90;1.00;;;;;;4953241;29;20899;-71
2023/06/12 07:25:17;;;;;;;0.90;0.20;;;24.00;1.00;;;;;;4954189;29;20468;-71
2023/06/12 07:27:46;;;;;;;0.70;0.20;;;24.00;1.00;;;;;;4953021;29;20452;-71
2023/06/12 07:30:15;;;;;;;1.00;0.87;;;24.00;1.00;;;;;;4950752;28;21048;-70
2023/06/12 07:32:43;;;;;;;0.70;0.20;;;24.00;1.00;;;;;;4952379;29;20453;-71
2023/06/12 07:35:11;;;;;;;0.70;0.30;;;24.00;1.00;;;;;;4952935;29;20464;-71
2023/06/12 07:37:39;;;;;;;1.83;0.53;;;24.00;1.00;;;;;;4952879;29;20453;-71
2023/06/12 07:40:08;;;;;;;0.90;0.70;;;24.00;1.00;;;;;;4951580;29;20547;-71
2023/06/12 07:42:36;;;;;;;1.37;1.27;;;24.00;1.00;;;;;;4945378;29;20551;-70
2023/06/12 07:45:07;;;;;;;0.70;0.17;;;24.00;1.00;;;;;;4952865;28;20477;-71
2023/06/12 07:47:38;;;;;;;0.70;0.20;;;24.00;1.00;;;;;;4953185;29;20446;-70
2023/06/12 07:50:07;;;;;;;0.70;0.20;;;24.00;1.00;;;;;;4952642;29;20448;-70
2023/06/12 07:52:35;;;;;;;0.70;0.20;;;;;;;;;;4953249;29;20902;-70
2023/06/12 07:55:05;;;;;;;0.90;0.77;;;24.20;1.00;;;;;;4952512;29;20465;-71
2023/06/12 07:57:34;;;;;;;0.70;0.20;;;24.20;1.00;;;;;;4949750;28;20504;-71
2023/06/12 08:00:05;;;;;;;0.70;0.20;;;24.30;1.00;;;;;;4960120;28;20818;-71
2023/06/12 08:02:35;;;;;;;0.70;0.20;;;24.20;1.00;;;;;;4960810;28;20459;-71
2023/06/12 08:05:04;;;;;;;0.70;0.20;;;24.30;1.00;;;;;;4967674;28;20475;-72
2023/06/12 08:07:33;;;;;;;7.60;1.10;;;24.30;1.00;;;;;;4980023;28;20548;-71
2023/06/12 08:10:01;;;;;;;0.80;0.37;;;24.40;1.00;;;;;;4982297;28;20477;-71
2023/06/12 08:12:28;;;;;;;0.70;0.20;;;24.40;1.00;;;;;;4955246;29;20804;-72
2023/06/12 08:14:56;;;;;;;0.70;0.30;;;24.40;1.00;;;;;;4951843;28;20465;-73
2023/06/12 08:17:24;;;;;;;0.70;0.20;;;24.40;1.00;;;;;;4973521;28;20500;-74
2023/06/12 08:19:54;;;;;;;2.37;2.27;;;24.50;1.00;;;;;;4974551;28;20452;-72
2023/06/12 08:22:23;;;;;;;0.70;0.10;;;24.40;1.00;;;;;;4972480;28;20457;-73
2023/06/12 08:24:51;;;;;;;2.97;1.40;;;24.50;1.00;;;;;;4961025;28;20543;-72
2023/06/12 08:27:19;;;;;;;0.70;0.10;;;24.60;1.00;;;;;;4953941;29;20462;-71
2023/06/12 08:29:47;;;;;;;0.70;0.20;;;24.70;1.00;;;;;;4954782;29;20484;-74
2023/06/12 08:32:14;;;;;;;0.70;0.20;;;24.70;1.00;;;;;;4955733;29;20543;-71
2023/06/12 08:34:42;;;;;;;0.70;0.20;;;24.80;1.00;;;;;;4954604;29;20460;-72
2023/06/12 08:37:12;;;;;;;1.43;0.37;;;24.80;1.00;;;;;;4956061;28;20467;-70
2023/06/12 08:39:39;;;;;;;0.70;0.37;;;24.90;1.00;;;;;;4956401;29;20446;-70
2023/06/12 08:42:09;;;;;;;0.70;0.30;;;25.00;1.00;;;;;;4955010;29;20489;-71
2023/06/12 08:44:41;;;;;;;0.93;0.60;;;24.90;1.00;;;;;;4955095;29;20486;-71
2023/06/12 08:47:13;;;;;;;0.70;0.20;;;24.90;1.00;;;;;;4956738;28;20501;-72
2023/06/12 08:49:41;;;;;;;0.70;0.20;;;25.00;1.00;;;;;;4954414;29;20486;-72
2023/06/12 08:52:10;;;;;;;0.70;0.20;;;25.10;1.00;;;;;;4956464;28;20485;-76
2023/06/12 08:54:40;;;;;;;0.90;0.57;;;25.10;1.00;;;;;;4959436;28;20536;-74
2023/06/12 08:57:08;;;;;;;0.97;0.50;;;25.20;1.00;;;;;;4959893;28;21075;-73
2023/06/12 08:59:36;;;;;;;0.70;0.20;;;25.20;1.00;;;;;;4953628;29;20811;-73
2023/06/12 09:02:04;;;;;;;0.70;0.10;;;25.40;1.00;;;;;;4953665;29;20454;-73
2023/06/12 09:04:45;;;;;;;0.70;0.20;;;25.40;1.00;;;;;;4953957;29;20486;-73
2023/06/12 09:07:17;;;;;;;1.90;0.77;;;25.50;1.00;;;;;;4954257;29;20470;-74
2023/06/12 09:09:47;;;;;;;0.80;0.40;;;25.50;1.00;;;;;;4954119;29;20470;-73
2023/06/12 09:12:15;;;;;;;0.70;0.10;;;25.50;1.00;;;;;;4953161;29;20965;-73
2023/06/12 09:14:45;;;;;;;0.70;0.10;;;25.50;1.00;;;;;;4953988;29;20453;-75
2023/06/12 09:17:13;;;;;;;0.70;0.20;;;25.60;1.00;;;;;;4953673;28;20484;-74
2023/06/12 09:19:43;;;;;;;0.70;0.10;;;25.60;1.00;;;;;;4954132;29;20570;-74
2023/06/12 09:22:12;;;;;;;0.80;0.20;;;25.80;1.00;;;;;;4953202;29;20457;-74
2023/06/12 09:24:40;;;;;;;1.37;0.93;;;25.80;1.00;;;;;;4953503;29;20493;-71
2023/06/12 09:27:11;;;;;;;0.70;0.20;;;;;;;;;;4954848;29;20486;-70
2023/06/12 09:29:41;;;;;;;0.70;0.20;;;25.70;1.00;;;;;;4954825;29;20450;-70
2023/06/12 09:32:12;;;;;;;0.70;0.10;;;25.70;1.00;;;;;;4953842;28;20571;-72
2023/06/12 09:34:46;;;;;;;0.90;0.80;;;25.80;1.00;;;;;;4952650;28;20479;-70
2023/06/12 09:37:15;;;;;;;0.70;0.10;;;25.80;1.00;;;;;;4955242;28;20548;-72
2023/06/12 09:39:43;;;;;;;1.50;1.40;;;26.00;1.00;;;;;;4968980;28;20455;-71
2023/06/12 09:42:16;;;;;;;0.70;0.30;;;26.10;1.00;;;;;;4973881;28;20545;-72
2023/06/12 09:44:44;;;;;;;0.70;0.20;;;26.10;1.00;;;;;;4957655;29;20478;-73
2023/06/12 09:47:12;;;;;;;0.70;0.20;;;26.10;1.00;;;;;;4957203;28;20474;-73
2023/06/12 09:49:40;;;;;;;0.70;0.10;;;26.10;1.00;;;;;;4956953;29;20890;-72
2023/06/12 09:52:09;;;;;;;0.70;0.10;;;26.10;1.00;;;;;;4957641;29;20457;-73
2023/06/12 09:54:39;;;;;;;1.00;0.40;;;26.10;1.00;;;;;;4956842;29;20450;-72
2023/06/12 09:57:08;;;;;;;0.70;0.20;;;26.10;1.00;;;;;;4958314;29;20512;-73
2023/06/12 09:59:38;;;;;;;0.90;0.50;;;26.10;1.00;;;;;;4958255;28;20493;-73
2023/06/12 10:02:12;;;;;;;0.70;0.30;;;26.30;1.00;;;;;;4955421;29;20446;-73
2023/06/12 10:04:48;;;;;;;0.70;0.10;;;26.40;1.00;;;;;;4955660;29;20493;-72
2023/06/12 10:07:19;;;;;;;0.70;0.13;;;26.50;1.00;;;;;;4955461;28;20557;-73
2023/06/12 10:09:48;;;;;;;0.70;0.20;;;;;;;;;;4955374;29;20465;-73
2023/06/12 10:12:17;;;;;;;0.70;0.20;;;26.60;1.00;;;;;;4952930;29;20451;-73
2023/06/12 10:14:47;;;;;;;0.90;0.43;;;26.70;1.00;;;;;;4954881;29;20635;-73
2023/06/12 10:17:16;;;;;;;0.70;0.23;;;26.50;1.00;;;;;;4955466;28;20475;-73
2023/06/12 10:19:47;;;;;;;0.70;0.20;;;26.50;1.00;;;;;;4955241;29;20465;-73
2023/06/12 10:22:15;;;;;;;0.70;0.27;;;26.50;1.00;;;;;;4949866;29;20829;-73
2023/06/12 10:24:43;;;;;;;1.73;1.07;;;26.50;1.00;;;;;;4934694;29;20452;-72
2023/06/12 10:27:12;;;;;;;0.70;0.10;;;26.30;1.00;;;;;;4955039;28;20506;-73
2023/06/12 10:29:40;;;;;;;1.10;0.93;;;26.40;1.00;;;;;;4955188;29;20490;-73
2023/06/12 10:32:10;;;;;;;0.70;0.20;;;26.40;1.00;;;;;;4955255;29;20565;-74
2023/06/12 10:34:42;;;;;;;1.60;0.63;;;26.50;1.00;;;;;;4953512;28;20502;-74
2023/06/12 10:37:24;;;;;;;0.70;0.20;;;26.50;1.00;;;;;;4960172;28;20465;-73
2023/06/12 10:40:15;;;;;;;0.70;0.10;;;26.60;1.00;;;;;;4953996;28;20505;-73
2023/06/12 10:42:48;;;;;;;1.87;1.73;;;26.80;1.00;;;;;;4954209;28;20491;-73
2023/06/12 10:45:21;;;;;;;0.80;0.50;;;26.70;1.00;;;;;;4961218;28;20774;-72
2023/06/12 10:48:17;;;;;;;0.70;0.13;;;26.70;1.00;;;;;;4974474;28;20579;-72
2023/06/12 10:50:50;;;;;;;0.80;0.30;;;26.70;1.00;;;;;;4974885;28;20442;-72
2023/06/12 10:53:22;;;;;;;2.43;1.47;;;26.90;1.00;;;;;;4967376;28;20446;-73
2023/06/12 10:55:57;;;;;;;1.30;0.83;;;27.00;1.00;;;;;;4955419;28;20478;-72
2023/06/12 10:58:26;;;;;;;0.70;0.20;;;27.10;1.00;;;;;;4961658;28;20541;-72
2023/06/12 11:00:54;;;;;;;0.70;0.20;;;;;;;;;;4974710;28;20456;-73
2023/06/12 11:03:28;;;;;;;0.70;0.20;;;27.30;1.00;;;;;;4974068;28;20449;-73
2023/06/12 11:06:00;;;;;;;0.70;0.10;;;27.50;1.00;;;;;;4963416;28;21001;-74
2023/06/12 11:08:30;;;;;;;0.90;0.60;;;27.50;1.00;;;;;;4954940;29;21005;-73
2023/06/12 11:10:58;;;;;;;1.20;0.90;;;27.50;1.00;;;;;;4952248;28;20466;-74
2023/06/12 11:13:27;;;;;;;1.63;0.80;;;27.50;1.00;;;;;;4952750;29;20957;-72
2023/06/12 11:15:55;;;;;;;0.80;0.40;;;27.70;1.00;;;;;;4954095;28;20553;-73
2023/06/12 11:18:24;;;;;;;3.73;0.80;;;27.70;1.00;;;;;;4955982;29;20454;-72
2023/06/12 11:20:54;;;;;;;1.93;1.17;;;27.50;1.00;;;;;;4948175;29;20497;-71
2023/06/12 11:23:23;;;;;;;0.93;0.83;;;27.30;1.00;;;;;;4956040;29;20476;-73
2023/06/12 11:25:53;;;;;;;1.20;0.77;;;27.00;1.00;;;;;;4951654;28;20493;-72
2023/06/12 11:28:23;;;;;;;1.23;0.60;;;26.90;1.00;;;;;;4954602;29;20446;-74
2023/06/12 11:30:52;;;;;;;0.70;0.30;;;26.50;1.00;;;;;;4954451;29;20529;-72
2023/06/12 11:33:40;;;;;;;1.00;0.57;;;26.50;1.00;;;;;;4944463;29;20451;-72
2023/06/12 11:36:08;;;;;;;1.77;1.23;;;26.50;1.00;;;;;;4954912;28;20525;-73
2023/06/12 11:38:36;;;;;;;0.80;0.50;;;26.50;1.00;;;;;;4954432;29;20510;-72
2023/06/12 11:41:10;;;;;;;0.70;0.13;;;26.40;1.00;;;;;;4961247;28;20478;-72
2023/06/12 11:43:39;;;;;;;0.70;0.20;;;26.40;1.00;;;;;;4964602;28;20474;-71
2023/06/12 11:46:07;;;;;;;2.23;0.60;;;26.60;1.00;;;;;;4954483;29;20486;-71
2023/06/12 11:48:35;;;;;;;0.70;0.10;;;26.60;1.00;;;;;;4953131;29;20942;-71
2023/06/12 11:51:08;;;;;;;0.70;0.20;;;26.60;1.00;;;;;;4953203;29;20459;-73
2023/06/12 11:53:36;;;;;;;1.37;0.87;;;26.70;1.00;;;;;;4949536;28;20466;-72
2023/06/12 11:56:05;;;;;;;0.70;0.50;;;26.90;1.00;;;;;;4954871;29;20493;-71
2023/06/12 11:58:37;;;;;;;1.03;0.93;;;27.00;1.00;;;;;;4953470;28;20474;-72
2023/06/12 12:01:12;;;;;;;2.10;1.90;;;27.00;1.00;;;;;;4952586;29;20571;-73
2023/06/12 12:03:44;;;;;;;0.90;0.40;;;27.00;1.00;;;;;;4953053;29;20525;-73
2023/06/12 12:06:14;;;;;;;0.70;0.20;;;27.20;1.00;;;;;;4954064;28;20623;-72
2023/06/12 12:08:42;;;;;;;0.70;0.10;;;27.20;1.00;;;;;;4958074;29;20454;-73
2023/06/12 12:11:21;;;;;;;0.70;0.20;;;27.20;1.00;;;;;;4957125;29;20454;-73
2023/06/12 12:13:53;;;;;;;0.70;0.17;;;27.30;1.00;;;;;;4953398;29;20465;-71
2023/06/12 12:16:23;;;;;;;1.53;1.13;;;27.50;1.00;;;;;;4952765;28;21225;-73
2023/06/12 12:18:51;;;;;;;0.70;0.20;;;27.50;1.00;;;;;;4948607;29;20461;-71
2023/06/12 12:21:23;;;;;;;0.70;0.20;;;27.50;1.00;;;;;;4952716;29;20465;-72
2023/06/12 12:23:52;;;;;;;0.70;0.10;;;27.60;1.00;;;;;;4953008;29;20502;-71
2023/06/12 12:26:20;;;;;;;0.90;0.50;;;27.80;1.00;;;;;;4953390;28;20478;-72
2023/06/12 12:28:48;;;;;;;1.40;1.07;;;27.90;1.00;;;;;;4954153;29;20459;-71
2023/06/12 12:31:16;;;;;;;0.70;0.20;;;28.00;1.00;;;;;;4953166;29;20455;-72
2023/06/12 12:33:43;;;;;;;0.70;0.20;;;27.80;1.00;;;;;;4954229;29;20462;-73
2023/06/12 12:36:11;;;;;;;2.50;2.17;;;27.90;1.00;;;;;;4953674;28;20467;-71
2023/06/12 12:38:40;;;;;;;1.67;1.17;;;27.90;1.00;;;;;;4953782;29;20474;-71
2023/06/12 12:41:08;;;;;;;0.70;0.10;;;27.80;1.00;;;;;;4958415;29;20471;-73
2023/06/12 12:43:36;;;;;;;0.70;0.20;;;27.70;1.00;;;;;;4953321;29;20476;-73
2023/06/12 12:46:04;;;;;;;0.70;0.20;;;28.00;1.00;;;;;;4953879;29;20474;-73
2023/06/12 12:48:32;;;;;;;1.10;1.00;;;28.00;1.00;;;;;;4954351;29;20482;-73
2023/06/12 12:51:00;;;;;;;0.70;0.10;;;28.10;1.00;;;;;;4952420;29;20439;-72
2023/06/12 12:53:37;;;;;;;0.70;0.10;;;28.00;1.00;;;;;;4953620;29;20533;-72
2023/06/12 12:56:07;;;;;;;0.70;0.10;;;28.10;1.00;;;;;;4953223;28;20474;-72
2023/06/12 12:58:35;;;;;;;0.70;0.20;;;28.10;1.00;;;;;;4953264;29;20493;-72
2023/06/12 13:01:04;;;;;;;0.70;0.20;;;28.20;1.00;;;;;;4953400;29;20457;-72
2023/06/12 13:03:34;;;;;;;0.70;0.20;;;28.10;1.00;;;;;;4951202;29;20469;-72
2023/06/12 13:06:04;;;;;;;0.90;0.73;;;28.10;1.00;;;;;;4951653;28;20490;-77
2023/06/12 13:08:32;;;;;;;3.73;2.43;;;28.10;1.00;;;;;;4954579;29;20450;-76
2023/06/12 13:11:00;;;;;;;0.70;0.20;;;28.10;1.00;;;;;;4955843;28;20448;-76
2023/06/12 13:13:32;;;;;;;0.70;0.20;;;28.20;1.00;;;;;;4959118;28;20464;-77
2023/06/12 13:16:01;;;;;;;0.70;0.20;;;28.40;1.00;;;;;;4948776;28;20564;-77
2023/06/12 13:18:28;;;;;;;4.63;1.10;;;28.40;1.00;;;;;;4957083;28;20489;-76
2023/06/12 13:20:56;;;;;;;0.70;0.20;;;28.30;1.00;;;;;;4956794;29;20458;-76
2023/06/12 13:23:24;;;;;;;1.23;0.67;;;28.20;1.00;;;;;;4956527;29;20580;-78
2023/06/12 13:25:53;;;;;;;0.70;0.10;;;28.20;1.00;;;;;;4955872;28;20562;-76
2023/06/12 13:28:21;;;;;;;0.83;0.40;;;28.10;1.00;;;;;;4956704;29;20571;-76
2023/06/12 13:30:51;;;;;;;1.30;1.20;;;28.20;1.00;;;;;;4956434;29;20442;-75
2023/06/12 13:33:18;;;;;;;2.70;0.60;;;28.30;1.00;;;;;;4957602;29;20540;-76
2023/06/12 13:35:47;;;;;;;0.70;0.20;;;28.40;1.00;;;;;;4956112;28;20487;-75
2023/06/12 13:38:14;;;;;;;0.80;0.47;;;28.40;1.00;;;;;;4956938;29;20949;-76
2023/06/12 13:40:43;;;;;;;0.90;0.63;;;28.00;1.00;;;;;;4957311;29;20486;-75
2023/06/12 13:43:11;;;;;;;0.70;0.30;;;;;;;;;;4956371;29;20537;-77
2023/06/12 13:45:40;;;;;;;0.93;0.50;;;28.50;1.00;;;;;;4955279;29;20977;-79
2023/06/12 13:48:09;;;;;;;1.27;1.07;;;28.40;1.00;;;;;;4953070;29;20598;-76
2023/06/12 13:50:38;;;;;;;0.70;0.20;;;28.30;1.00;;;;;;4954815;29;20449;-76
2023/06/12 13:53:05;;;;;;;0.80;0.40;;;28.30;1.00;;;;;;4951558;29;20761;-77
2023/06/12 13:55:33;;;;;;;1.83;1.70;;;28.50;1.00;;;;;;4953468;29;20488;-75
2023/06/12 13:58:07;;;;;;;3.23;2.00;;;28.60;1.00;;;;;;4955624;29;20566;-75
2023/06/12 14:00:35;;;;;;;0.70;0.10;;;28.80;1.00;;;;;;4956037;29;20460;-76
2023/06/12 14:03:03;;;;;;;0.90;0.70;;;28.90;1.00;;;;;;4956243;29;20452;-77
2023/06/12 14:05:32;;;;;;;0.90;0.50;;;29.20;1.00;;;;;;4956073;28;20581;-75
2023/06/12 14:08:00;;;;;;;1.77;1.40;;;29.10;1.00;;;;;;4947097;28;20551;-76
2023/06/12 14:10:28;;;;;;;2.93;0.87;;;29.10;1.00;;;;;;4954075;29;20464;-78
2023/06/12 14:12:56;;;;;;;0.70;0.20;;;29.00;1.00;;;;;;4949988;29;20489;-76
2023/06/12 14:15:24;;;;;;;0.90;0.70;;;29.00;1.00;;;;;;4954216;28;20817;-73
2023/06/12 14:17:52;;;;;;;1.17;0.30;;;29.00;1.00;;;;;;4951281;29;20450;-72
2023/06/12 14:20:20;;;;;;;0.70;0.17;;;28.90;1.00;;;;;;4954804;29;20448;-74
2023/06/12 14:22:50;;;;;;;0.90;0.30;;;29.00;1.00;;;;;;4954406;28;20477;-71
2023/06/12 14:25:17;;;;;;;1.27;0.40;;;29.20;1.00;;;;;;4954314;29;20881;-71
2023/06/12 14:27:46;;;;;;;3.27;0.73;;;29.10;1.00;;;;;;4949845;29;20491;-71
2023/06/12 14:30:14;;;;;;;1.10;0.80;;;29.20;1.00;;;;;;4948433;29;20468;-72
2023/06/12 14:32:42;;;;;;;1.27;1.17;;;29.00;1.00;;;;;;4952542;29;20460;-72
2023/06/12 14:35:10;;;;;;;0.70;0.30;;;29.00;1.00;;;;;;4951689;28;20460;-67
2023/06/12 14:37:39;;;;;;;0.80;0.30;;;29.10;1.00;;;;;;4947209;29;20481;-71
2023/06/12 14:40:09;;;;;;;0.80;0.40;;;28.90;1.00;;;;;;4954133;29;20611;-71
2023/06/12 14:42:37;;;;;;;0.70;0.30;;;29.00;1.00;;;;;;4954954;29;20477;-70
2023/06/12 14:45:05;;;;;;;0.90;0.57;;;29.20;1.00;;;;;;4956632;29;20557;-69
2023/06/12 14:47:33;;;;;;;2.07;0.63;;;29.20;1.00;;;;;;4958332;29;20901;-71
2023/06/12 14:50:01;;;;;;;1.27;0.60;;;29.20;1.00;;;;;;4948940;29;20610;-70
2023/06/12 14:52:29;;;;;;;0.70;0.20;;;29.10;1.00;;;;;;4953209;29;20545;-69
2023/06/12 14:55:01;;;;;;;0.70;0.30;;;29.20;1.00;;;;;;4955462;29;20458;-70
2023/06/12 14:57:30;;;;;;;0.70;0.20;;;29.40;1.00;;;;;;4954676;29;20841;-71
2023/06/12 14:59:58;;;;;;;0.90;0.53;;;29.50;1.00;;;;;;4954596;29;20497;-71
2023/06/12 15:02:26;;;;;;;0.70;0.10;;;29.70;1.00;;;;;;4955052;29;20528;-72
2023/06/12 15:04:54;;;;;;;0.70;0.20;;;29.90;1.00;;;;;;4954091;29;20508;-69
2023/06/12 15:07:22;;;;;;;0.70;0.20;;;30.00;1.00;;;;;;4959228;28;20469;-69
2023/06/12 15:09:50;;;;;;;0.80;0.40;;;;;;;;;;4956082;28;20463;-70
2023/06/12 15:12:18;;;;;;;2.43;2.33;;;30.20;1.00;;;;;;4954836;29;20458;-70
2023/06/12 15:14:48;;;;;;;0.70;0.10;;;30.50;1.00;;;;;;4955130;29;20474;-71
2023/06/12 15:17:15;;;;;;;0.90;0.60;;;30.80;1.00;;;;;;4956889;28;20559;-69
2023/06/12 15:19:43;;;;;;;0.80;0.50;;;30.80;1.00;;;;;;4954434;29;20462;-71
2023/06/12 15:22:11;;;;;;;0.70;0.20;;;30.70;1.00;;;;;;4951293;28;20474;-73
2023/06/12 15:24:40;;;;;;;1.00;0.40;;;30.70;1.00;;;;;;4952515;28;20466;-72
2023/06/12 15:27:08;;;;;;;0.70;0.33;;;30.80;1.00;;;;;;4950701;28;20477;-70
2023/06/12 15:29:36;;;;;;;0.70;0.20;;;30.60;1.00;;;;;;4955563;28;20516;-67
2023/06/12 15:32:06;;;;;;;1.20;0.90;;;30.30;1.00;;;;;;4955074;29;20473;-69
2023/06/12 15:34:34;;;;;;;1.00;0.70;;;30.30;1.00;;;;;;4957462;28;20453;-69
2023/06/12 15:37:02;;;;;;;0.90;0.37;;;30.10;1.00;;;;;;4955286;28;20831;-68
2023/06/12 15:39:30;;;;;;;0.70;0.23;;;30.00;1.00;;;;;;4953270;29;20489;-68
2023/06/12 15:41:58;;;;;;;5.07;2.57;;;30.00;1.00;;;;;;4953668;29;20498;-71
2023/06/12 15:44:30;;;;;;;0.90;0.63;;;30.10;1.00;;;;;;4946744;29;20450;-68
2023/06/12 15:46:58;;;;;;;1.90;1.70;;;;;;;;;;4953410;29;20482;-71
2023/06/12 15:49:27;;;;;;;0.97;0.40;;;30.40;1.00;;;;;;4952543;29;20570;-71
2023/06/12 15:51:55;;;;;;;0.70;0.30;;;30.60;1.00;;;;;;4952954;29;20450;-71
2023/06/12 15:54:23;;;;;;;0.70;0.10;;;30.80;1.00;;;;;;4953537;29;20443;-73
2023/06/12 15:56:52;;;;;;;0.70;0.10;;;31.00;1.00;;;;;;4953355;28;20474;-70
2023/06/12 15:59:21;;;;;;;1.00;0.30;;;31.10;1.00;;;;;;4953520;29;20574;-69
2023/06/12 16:01:52;;;;;;;0.70;0.20;;;31.20;1.00;;;;;;4954287;29;20971;-70
2023/06/12 16:04:21;;;;;;;0.70;0.10;;;31.40;1.00;;;;;;4955010;29;20431;-70
2023/06/12 16:06:51;;;;;;;0.77;0.43;;;31.50;1.00;;;;;;4955631;29;20502;-70
2023/06/12 16:09:19;;;;;;;1.20;0.60;;;31.70;1.00;;;;;;4953344;29;20486;-73
2023/06/12 16:11:48;;;;;;;1.73;1.13;;;31.60;1.00;;;;;;4959754;29;20486;-73
2023/06/12 16:14:16;;;;;;;0.70;0.20;;;31.70;1.00;;;;;;4957384;29;20514;-73
2023/06/12 16:16:44;;;;;;;0.70;0.20;;;31.90;1.00;;;;;;4955739;29;20520;-72
2023/06/12 16:19:12;;;;;;;1.17;1.07;;;32.00;1.00;;;;;;4954696;29;20450;-71
2023/06/12 16:21:41;;;;;;;0.70;0.10;;;31.90;1.00;;;;;;4953766;29;20450;-73
2023/06/12 16:24:11;;;;;;;0.80;0.50;;;31.80;1.00;;;;;;4953659;29;20453;-72
2023/06/12 16:26:39;;;;;;;0.80;0.60;;;31.90;1.00;;;;;;4954001;29;20555;-73
2023/06/12 16:29:07;;;;;;;0.90;0.70;;;31.90;1.00;;;;;;4953954;29;20845;-71
2023/06/12 16:31:35;;;;;;;0.70;0.20;;;31.90;1.00;;;;;;4953462;29;20545;-74
2023/06/12 16:34:03;;;;;;;1.23;0.80;;;31.80;1.00;;;;;;4953649;29;20497;-75
2023/06/12 16:36:32;;;;;;;0.80;0.30;;;;;;;;;;4953822;29;20473;-78
2023/06/12 16:38:59;;;;;;;0.80;0.30;;;32.10;1.00;;;;;;4953854;29;20455;-70
2023/06/12 16:41:29;;;;;;;0.80;0.20;;;31.90;1.00;;;;;;4960132;29;20976;-71
2023/06/12 16:43:57;;;;;;;0.70;0.10;;;31.90;1.00;;;;;;4959889;29;20431;-72
2023/06/12 16:46:25;;;;;;;0.70;0.20;;;32.20;1.00;;;;;;4962488;28;20474;-71
2023/06/12 16:48:53;;;;;;;0.70;0.20;;;32.20;1.00;;;;;;4960229;29;20533;-71
2023/06/12 16:51:23;;;;;;;0.70;0.20;;;32.30;1.00;;;;;;4963249;29;20478;-73
2023/06/12 16:53:52;;;;;;;0.70;0.20;;;32.40;1.00;;;;;;4958364;29;20854;-71
2023/06/12 16:56:20;;;;;;;0.70;0.20;;;32.30;1.00;;;;;;4958065;28;20481;-70
2023/06/12 16:58:50;;;;;;;0.70;0.20;;;32.20;1.00;;;;;;4957768;29;20474;-71
2023/06/12 17:01:17;;;;;;;0.70;0.20;;;32.10;1.00;;;;;;4957769;29;20526;-71
2023/06/12 17:03:45;;;;;;;1.00;0.90;;;32.10;1.00;;;;;;4957045;29;20452;-73
2023/06/12 17:06:13;;;;;;;0.70;0.20;;;32.00;1.00;;;;;;4958117;28;20529;-72
2023/06/12 17:08:41;;;;;;;1.57;0.90;;;31.90;1.00;;;;;;4958184;29;20536;-73
2023/06/12 17:11:10;;;;;;;2.03;1.80;;;31.70;1.00;;;;;;4948172;29;20533;-73